Time;durP1;ratioP1;P1;durP2;ratioP2;P2;SDS_P1;SDS_P2;PMS_P1;PMS_P2;Temp;Humidity;BMP_temperature;BMP_pressure;BME280_temperature;BME280_humidity;BME280_pressure;Samples;Min_cycle;Max_cycle;Signal;HPM_P1;HPM_P2
2021/01/20 00:01:35;;;;;;;9.07;5.00;;;;;;;-18.36;100.00;100624.27;1697903;84;21275;-70
2021/01/20 00:04:04;;;;;;;12.30;5.60;;;;;;;-18.35;100.00;100627.31;1697853;84;21817;-69
2021/01/20 00:06:32;;;;;;;3.13;2.47;;;;;;;-18.32;100.00;100629.95;1697556;84;21115;-70
2021/01/20 00:09:00;;;;;;;2.10;2.00;;;;;;;-18.31;100.00;100629.08;1697611;84;21138;-70
2021/01/20 00:11:29;;;;;;;2.00;1.90;;;;;;;-18.28;100.00;100629.14;1723203;83;21126;-70
2021/01/20 00:13:57;;;;;;;5.23;3.13;;;;;;;-18.25;100.00;100635.64;1726901;83;21139;-70
2021/01/20 00:16:25;;;;;;;12.07;5.93;;;;;;;-18.24;100.00;100631.34;1726965;83;21720;-70
2021/01/20 00:18:54;;;;;;;3.60;3.23;;;;;;;-18.24;100.00;100633.92;1726969;83;21214;-69
2021/01/20 00:21:23;;;;;;;3.63;2.80;;;;;;;-18.22;100.00;100629.22;1726883;83;21264;-69
2021/01/20 00:23:51;;;;;;;9.17;3.10;;;;;;;-18.21;100.00;100627.09;1726910;83;21210;-70
2021/01/20 00:26:19;;;;;;;7.43;4.80;;;;;;;-18.22;100.00;100626.63;1727060;82;21285;-70
2021/01/20 00:28:48;;;;;;;4.90;3.27;;;;;;;-18.25;100.00;100635.64;1727064;83;21100;-70
2021/01/20 00:31:16;;;;;;;7.10;3.63;;;;;;;-18.25;100.00;100636.94;1717927;83;21139;-70
2021/01/20 00:33:44;;;;;;;17.43;5.27;;;;;;;-18.27;100.00;100631.28;1710458;84;22538;-70
2021/01/20 00:36:11;;;;;;;1.93;1.50;;;;;;;-18.28;100.00;100630.86;1710451;83;21195;-70
2021/01/20 00:38:39;;;;;;;2.73;2.53;;;;;;;-18.28;100.00;100626.98;1710461;83;21189;-69
2021/01/20 00:41:07;;;;;;;3.70;3.00;;;;;;;-18.28;100.00;100620.10;1710426;84;21241;-70
2021/01/20 00:43:35;;;;;;;4.90;3.17;;;;;;;-18.27;100.00;100626.13;1710499;84;21363;-69
2021/01/20 00:46:03;;;;;;;3.03;2.07;;;;;;;-18.27;100.00;100624.44;1710625;84;21875;-69
2021/01/20 00:48:31;;;;;;;16.50;4.97;;;;;;;-18.27;100.00;100621.85;1710360;82;21233;-68
2021/01/20 00:50:59;;;;;;;10.53;5.17;;;;;;;-18.25;100.00;100614.11;1710591;84;21262;-69
2021/01/20 00:53:28;;;;;;;11.70;4.90;;;;;;;-18.27;100.00;100626.13;1710526;84;22050;-70
2021/01/20 00:55:55;;;;;;;3.60;3.13;;;;;;;-18.26;100.00;100627.88;1706270;82;21237;-70
2021/01/20 00:58:23;;;;;;;8.40;5.40;;;;;;;-18.26;100.00;100628.73;1702633;83;21792;-70
2021/01/20 01:00:51;;;;;;;4.17;3.77;;;;;;;-18.26;100.00;100631.31;1682186;84;21234;-70
2021/01/20 01:03:19;;;;;;;2.60;2.50;;;;;;;-18.27;100.00;100630.00;1757109;81;21341;-69
2021/01/20 01:05:47;;;;;;;8.20;2.97;;;;;;;-18.25;100.00;100636.05;1805823;79;21143;-70
2021/01/20 01:08:16;;;;;;;9.07;2.20;;;;;;;-18.28;100.00;100645.92;1805835;79;21137;-69
2021/01/20 01:10:47;;;;;;;9.78;5.33;;;;;;;-18.31;100.00;100640.70;1712986;82;21364;-69
2021/01/20 01:13:17;;;;;;;2.43;2.23;;;;;;;-18.34;100.00;100639.78;1722482;83;20965;-70
2021/01/20 01:15:47;;;;;;;5.00;2.10;;;;;;;-18.41;100.00;100643.58;1722393;83;21256;-71
2021/01/20 01:18:15;;;;;;;3.03;2.83;;;;;;;-18.46;100.00;100649.52;1726935;83;21258;-70
2021/01/20 01:20:44;;;;;;;9.67;4.53;;;;;;;-18.48;100.00;100647.30;1726992;83;21824;-71
2021/01/20 01:23:12;;;;;;;3.10;2.87;;;;;;;-18.50;100.00;100645.12;1726820;83;21648;-70
2021/01/20 01:25:40;;;;;;;3.73;2.40;;;;;;;-18.51;100.00;100646.84;1726878;83;21233;-70
2021/01/20 01:28:13;;;;;;;14.80;7.47;;;;;;;-18.55;100.00;100651.09;1726797;83;21121;-69
2021/01/20 01:30:43;;;;;;;18.77;7.80;;;;;;;-18.59;100.00;100648.42;1722382;83;21211;-70
2021/01/20 01:33:11;;;;;;;13.23;6.57;;;;;;;-18.60;100.00;100654.44;1695832;83;21251;-71
2021/01/20 01:35:41;;;;;;;7.63;5.17;;;;;;;-18.61;100.00;100647.09;1735024;81;21303;-69
2021/01/20 01:38:09;;;;;;;3.57;3.27;;;;;;;-18.60;100.00;100651.86;1727192;82;21898;-70
2021/01/20 01:40:38;;;;;;;4.20;2.97;;;;;;;-18.59;100.00;100650.60;1692786;83;21252;-70
2021/01/20 01:43:26;;;;;;;3.50;3.30;;;;;;;-18.53;100.00;100646.36;1928667;74;22314;-71
2021/01/20 01:46:14;;;;;;;7.37;4.97;;;;;;;-18.57;100.00;100645.44;1779453;80;20971;-71
2021/01/20 01:48:44;;;;;;;1.73;1.63;;;;;;;-18.54;100.00;100646.79;1773203;80;21259;-71
2021/01/20 01:51:13;;;;;;;10.90;5.13;;;;;;;-18.55;100.00;100644.64;1779423;80;21089;-70
2021/01/20 01:53:43;;;;;;;9.17;6.10;;;;;;;-18.57;100.00;100644.15;1779461;80;21200;-69
2021/01/20 01:56:13;;;;;;;12.73;5.40;;;;;;;-18.60;100.00;100650.58;1773374;80;21604;-70
2021/01/20 01:58:43;;;;;;;3.60;3.30;;;;;;;-18.62;100.00;100651.83;1773382;79;21748;-71
2021/01/20 02:01:14;;;;;;;4.55;3.85;;;;;;;-18.62;100.00;100654.84;1779286;80;21575;-71
2021/01/20 02:03:44;;;;;;;4.97;4.43;;;;;;;-18.65;100.00;100649.63;1773086;79;21026;-72
2021/01/20 02:06:13;;;;;;;10.30;4.87;;;;;;;-18.67;100.00;100652.61;1779594;80;21190;-71
2021/01/20 02:08:42;;;;;;;5.90;5.23;;;;;;;-18.68;100.00;100656.88;1779314;80;21248;-70
2021/01/20 02:11:24;;;;;;;9.87;4.77;;;;;;;-18.66;100.00;100653.03;1766830;80;21241;-70
2021/01/20 02:14:27;;;;;;;3.12;2.90;;;;;;;-18.67;100.00;100653.47;1762763;81;22271;-69
2021/01/20 02:17:46;;;;;;;3.67;3.30;;;;;;;-18.65;100.00;100655.64;1845897;76;22769;-71
2021/01/20 02:20:57;;;;;;;12.17;5.00;;;;;;;-18.72;100.00;100653.80;1787957;80;21573;-70
2021/01/20 02:23:33;;;;;;;6.23;3.07;;;;;;;-18.63;100.00;100659.54;1845800;76;22718;-71
2021/01/20 02:26:33;;;;;;;2.57;2.37;;;;;;;-18.67;100.00;100659.05;1815880;79;20909;-69
2021/01/20 02:29:42;;;;;;;4.05;2.70;;;;;;;-18.63;100.00;100668.57;1811440;79;21149;-70
2021/01/20 02:32:18;;;;;;;6.40;4.87;;;;;;;-18.64;100.00;100675.84;1740101;82;21045;-70
2021/01/20 02:34:47;;;;;;;4.37;3.03;;;;;;;-18.70;100.00;100682.20;1707078;84;21029;-70
2021/01/20 02:37:15;;;;;;;2.40;1.87;;;;;;;-18.74;100.00;100682.14;1729577;83;21297;-69
2021/01/20 02:39:47;;;;;;;6.27;5.50;;;;;;;-18.78;100.00;100679.07;1707463;84;21306;-70
2021/01/20 02:42:19;;;;;;;6.47;4.97;;;;;;;-18.81;100.00;100686.75;1726112;83;21779;-69
2021/01/20 02:44:49;;;;;;;3.33;3.03;;;;;;;-18.84;100.00;100692.30;1707350;84;21119;-69
2021/01/20 02:47:27;;;;;;;5.83;4.17;;;;;;;-18.87;100.00;100687.08;1846035;76;22699;-68
2021/01/20 02:49:57;;;;;;;10.63;5.60;;;;;;;-18.98;100.00;100696.80;1815606;79;20992;-70
2021/01/20 02:52:48;;;;;;;6.03;5.63;;;;;;;-19.02;100.00;100697.99;1815985;77;21237;-69
2021/01/20 02:55:35;;;;;;;14.83;9.73;;;;;;;-19.08;100.00;100696.57;1815772;79;21619;-69
2021/01/20 02:58:13;;;;;;;8.27;6.13;;;;;;;-19.15;100.00;100699.05;1699943;82;21239;-71
2021/01/20 03:00:43;;;;;;;8.93;5.53;;;;;;;-19.21;100.00;100694.18;1696191;84;21829;-70
2021/01/20 03:03:19;;;;;;;4.40;4.00;;;;;;;-19.21;100.00;100693.75;1846073;76;22677;-69
2021/01/20 03:05:47;;;;;;;5.23;4.77;;;;;;;-19.33;100.00;100685.81;1811074;79;20949;-71
2021/01/20 03:08:15;;;;;;;5.50;4.80;;;;;;;-19.42;100.00;100689.46;1811039;78;21381;-70
2021/01/20 03:10:43;;;;;;;3.40;3.20;;;;;;;-19.48;100.00;100697.08;1815929;78;21214;-71
2021/01/20 03:13:11;;;;;;;13.50;5.27;;;;;;;-19.50;100.00;100698.33;1821495;78;21182;-70
2021/01/20 03:15:41;;;;;;;5.83;5.17;;;;;;;-19.49;100.00;100697.91;1806866;78;21177;-70
2021/01/20 03:18:09;;;;;;;4.47;4.07;;;;;;;-19.49;100.00;100703.95;1736464;82;21060;-70
2021/01/20 03:20:36;;;;;;;9.87;4.43;;;;;;;-19.49;100.00;100696.61;1741556;81;21384;-71
2021/01/20 03:23:05;;;;;;;7.87;5.97;;;;;;;-19.51;100.00;100701.73;1759459;81;21298;-69
2021/01/20 03:25:33;;;;;;;3.43;3.17;;;;;;;-19.53;100.00;100697.83;1736488;82;21242;-70
2021/01/20 03:28:01;;;;;;;5.77;4.60;;;;;;;-19.51;100.00;100697.47;1741707;82;21815;-71
2021/01/20 03:30:29;;;;;;;4.80;4.13;;;;;;;-19.45;100.00;100694.14;1759509;81;21719;-70
2021/01/20 03:32:57;;;;;;;10.77;5.03;;;;;;;-19.42;100.00;100700.66;1736403;82;21674;-70
2021/01/20 03:35:24;;;;;;;1.63;1.57;;;;;;;-19.39;100.00;100701.98;1741542;82;21268;-70
2021/01/20 03:37:53;;;;;;;10.23;6.87;;;;;;;-19.36;100.00;100701.20;1759521;81;21218;-70
2021/01/20 03:40:21;;;;;;;5.00;3.43;;;;;;;-19.30;100.00;100699.16;1736325;82;21466;-70
2021/01/20 03:42:48;;;;;;;5.57;3.80;;;;;;;-19.26;100.00;100702.23;1741626;82;21726;-70
2021/01/20 03:45:16;;;;;;;2.33;1.47;;;;;;;-19.22;100.00;100706.64;1759665;81;22747;-70
2021/01/20 03:47:44;;;;;;;7.93;2.50;;;;;;;-19.17;100.00;100709.75;1736159;82;21314;-69
2021/01/20 03:50:13;;;;;;;3.43;3.07;;;;;;;-19.15;100.00;100704.20;1741542;82;21231;-69
2021/01/20 03:52:41;;;;;;;5.03;3.83;;;;;;;-19.21;100.00;100705.34;1759389;81;21574;-70
2021/01/20 03:55:10;;;;;;;1.23;1.23;;;;;;;-19.28;100.00;100698.77;1736284;82;21064;-70
2021/01/20 03:57:38;;;;;;;1.50;1.50;;;;;;;-19.36;100.00;100707.21;1741709;82;21135;-70
2021/01/20 04:00:06;;;;;;;5.90;4.33;;;;;;;-19.42;100.00;100690.75;1741479;82;21838;-70
2021/01/20 04:02:34;;;;;;;9.07;6.07;;;;;;;-19.47;100.00;100691.96;1756767;81;21246;-68
2021/01/20 04:05:09;;;;;;;6.70;4.90;;;;;;;-19.48;100.00;100689.35;1732035;82;21084;-69
2021/01/20 04:07:38;;;;;;;11.17;5.60;;;;;;;-19.48;100.00;100689.35;1732184;82;21739;-70
2021/01/20 04:10:07;;;;;;;4.63;4.20;;;;;;;-19.46;100.00;100685.09;1740949;81;22682;-70
2021/01/20 04:12:37;;;;;;;2.80;2.60;;;;;;;-19.46;100.00;100683.80;1762132;81;21114;-70
2021/01/20 04:15:06;;;;;;;4.03;3.63;;;;;;;-19.44;100.00;100693.72;1755477;81;21298;-70
2021/01/20 04:17:35;;;;;;;6.53;6.03;;;;;;;-19.43;100.00;100694.19;1731679;82;21308;-70
2021/01/20 04:20:04;;;;;;;4.20;3.53;;;;;;;-19.41;100.00;100699.80;1731629;82;21845;-70
2021/01/20 04:22:43;;;;;;;3.27;2.97;;;;;;;-19.33;100.00;100693.54;1852467;76;22724;-71
2021/01/20 04:25:12;;;;;;;2.63;2.43;;;;;;;-19.40;100.00;100704.13;1783165;80;20992;-70
2021/01/20 04:27:40;;;;;;;4.17;3.27;;;;;;;-19.45;100.00;100699.30;1855724;77;21650;-69
2021/01/20 04:30:09;;;;;;;1.77;1.67;;;;;;;-19.47;100.00;100700.09;1855572;77;21186;-70
2021/01/20 04:32:38;;;;;;;2.67;2.40;;;;;;;-19.47;100.00;100706.53;1855842;76;21614;-71
2021/01/20 04:35:07;;;;;;;9.87;5.17;;;;;;;-19.45;100.00;100707.03;1855775;77;21312;-71
2021/01/20 04:37:36;;;;;;;3.63;3.33;;;;;;;-19.45;100.00;100707.45;1855623;77;21239;-69
2021/01/20 04:40:06;;;;;;;2.80;2.60;;;;;;;-19.47;100.00;100710.39;1855732;77;21357;-70
2021/01/20 04:42:34;;;;;;;1.70;1.63;;;;;;;-19.47;100.00;100710.39;1855576;77;21219;-70
2021/01/20 04:45:05;;;;;;;4.47;2.53;;;;;;;-19.46;100.00;100712.14;1855713;77;21557;-68
2021/01/20 04:47:33;;;;;;;4.03;3.63;;;;;;;-19.45;100.00;100711.32;1855710;77;21768;-69
2021/01/20 04:50:02;;;;;;;7.40;5.10;;;;;;;-19.43;100.00;100717.38;1823490;77;21129;-71
2021/01/20 04:52:30;;;;;;;3.33;3.07;;;;;;;-19.42;100.00;100723.84;1797006;77;21333;-71
2021/01/20 04:54:58;;;;;;;4.70;3.73;;;;;;;-19.39;100.00;100730.33;1855799;77;21187;-70
2021/01/20 04:57:28;;;;;;;10.30;8.93;;;;;;;-19.35;100.00;100731.27;1855663;77;21105;-71
2021/01/20 04:59:57;;;;;;;11.83;8.50;;;;;;;-19.29;100.00;100734.41;1855912;77;21635;-71
2021/01/20 05:02:27;;;;;;;33.33;12.10;;;;;;;-19.24;100.00;100743.97;1834937;77;21223;-70
2021/01/20 05:04:55;;;;;;;14.60;12.07;;;;;;;-19.19;100.00;100747.91;1776677;78;21300;-71
2021/01/20 05:07:23;;;;;;;14.20;10.00;;;;;;;-19.16;100.00;100748.84;1822401;78;21262;-70
2021/01/20 05:09:51;;;;;;;6.07;5.47;;;;;;;-19.13;100.00;100753.21;1822543;78;21144;-70
2021/01/20 05:12:41;;;;;;;5.33;4.83;;;;;;;-19.09;100.00;100756.72;1822307;78;21257;-70
2021/01/20 05:15:13;;;;;;;13.30;7.03;;;;;;;-19.04;100.00;100756.40;1822317;78;21107;-70
2021/01/20 05:18:02;;;;;;;5.97;5.13;;;;;;;-19.00;100.00;100774.95;1783667;80;21372;-71
2021/01/20 05:20:35;;;;;;;7.63;3.50;;;;;;;-19.01;100.00;100780.53;1822425;78;21191;-70
2021/01/20 05:23:09;;;;;;;4.13;2.90;;;;;;;-19.07;100.00;100786.83;1783534;80;21450;-70
2021/01/20 05:25:47;;;;;;;5.57;4.03;;;;;;;-19.21;100.00;100788.25;1822358;78;21308;-70
2021/01/20 05:28:28;;;;;;;16.50;6.70;;;;;;;-19.29;100.00;100798.41;1783582;80;21056;-70
2021/01/20 05:30:58;;;;;;;6.53;4.47;;;;;;;-19.40;100.00;100799.86;1822294;78;21370;-71
2021/01/20 05:33:37;;;;;;;9.37;8.13;;;;;;;-19.45;100.00;100797.20;1783001;80;21280;-70
2021/01/20 05:36:10;;;;;;;13.83;8.33;;;;;;;-19.47;100.00;100800.56;1818848;78;21261;-70
2021/01/20 05:38:49;;;;;;;10.27;7.67;;;;;;;-19.48;100.00;100794.98;1783033;80;21128;-70
2021/01/20 05:41:29;;;;;;;21.67;13.23;;;;;;;-19.40;100.00;100794.70;1846142;76;22466;-72
2021/01/20 05:44:12;;;;;;;16.30;10.30;;;;;;;-19.42;100.00;100799.86;1816133;79;20988;-70
2021/01/20 05:46:43;;;;;;;10.10;6.93;;;;;;;-19.38;100.00;100793.06;1815952;79;22249;-71
2021/01/20 05:49:28;;;;;;;14.90;10.07;;;;;;;-19.35;100.00;100792.71;1816086;79;21166;-70
2021/01/20 05:51:56;;;;;;;10.17;6.93;;;;;;;-19.30;100.00;100793.22;1816045;79;21752;-71
2021/01/20 05:54:37;;;;;;;8.93;6.37;;;;;;;-19.21;100.00;100798.14;1816132;79;21248;-72
2021/01/20 05:57:19;;;;;;;8.90;6.73;;;;;;;-19.13;100.00;100799.19;1816140;79;21209;-69
2021/01/20 05:59:50;;;;;;;4.80;4.23;;;;;;;-19.00;100.00;100799.44;1816156;79;21249;-70
2021/01/20 06:02:19;;;;;;;5.77;5.33;;;;;;;-18.88;100.00;100796.25;1816076;79;21792;-73
2021/01/20 06:04:48;;;;;;;5.33;4.83;;;;;;;-18.77;100.00;100805.89;1816020;79;21227;-71
2021/01/20 06:07:16;;;;;;;9.80;6.93;;;;;;;-18.58;100.00;100816.16;1816111;79;21256;-70
2021/01/20 06:09:45;;;;;;;11.23;8.13;;;;;;;-18.39;100.00;100817.38;1815976;79;21093;-71
2021/01/20 06:12:14;;;;;;;5.57;4.80;;;;;;;-18.18;100.00;100819.88;1817316;79;21653;-77
2021/01/20 06:14:46;;;;;;;12.70;8.75;;;;;;;-17.95;100.00;100822.90;1785031;79;21224;-75
2021/01/20 06:17:35;;;;;;;22.90;9.80;;;;;;;-17.72;100.00;100820.66;1773598;80;21039;-79
2021/01/20 06:20:05;;;;;;;16.43;10.77;;;;;;;-17.63;100.00;100820.80;1785897;80;21254;-80
2021/01/20 06:22:40;;;;;;;10.73;9.60;;;;;;;-17.72;100.00;100826.22;1786084;80;21178;-78
2021/01/20 06:25:22;;;;;;;20.80;10.50;;;;;;;-17.79;100.00;100825.28;1783066;80;21356;-77
2021/01/20 06:28:08;;;;;;;26.07;12.80;;;;;;;-17.82;100.00;100821.34;1785309;80;28531;-71
2021/01/20 06:30:48;;;;;;;11.57;7.13;;;;;;;-17.80;100.00;100817.06;1784715;80;20992;-79
2021/01/20 06:33:16;;;;;;;9.60;7.20;;;;;;;-17.73;100.00;100812.87;1785903;80;21224;-78
2021/01/20 06:35:50;;;;;;;14.93;10.00;;;;;;;-17.65;100.00;100812.16;1776554;79;21119;-71
2021/01/20 06:38:33;;;;;;;10.03;6.40;;;;;;;-17.59;100.00;100812.66;1817846;79;21417;-79
2021/01/20 06:41:10;;;;;;;12.77;8.87;;;;;;;-17.53;100.00;100815.33;1818532;78;21173;-80
2021/01/20 06:43:43;;;;;;;11.10;5.30;;;;;;;-17.46;100.00;100817.59;1763140;79;21759;-81
2021/01/20 06:46:27;;;;;;;19.17;7.60;;;;;;;-17.36;100.00;100819.91;1751608;82;21153;-78
2021/01/20 06:49:11;;;;;;;10.47;8.13;;;;;;;-17.26;100.00;100821.34;1743849;82;21231;-80
2021/01/20 06:51:40;;;;;;;17.83;9.00;;;;;;;-17.08;100.00;100823.75;1742847;82;21221;-76
2021/01/20 06:54:13;;;;;;;24.83;14.63;;;;;;;-16.94;100.00;100820.92;1743028;82;21719;-81
2021/01/20 06:56:49;;;;;;;15.60;10.20;;;;;;;-16.82;100.00;100827.52;1742982;82;21315;-79
2021/01/20 06:59:27;;;;;;;7.50;4.63;;;;;;;-16.65;100.00;100826.84;1750778;82;21237;-80
2021/01/20 07:02:08;;;;;;;13.47;8.63;;;;;;;-16.51;100.00;100831.75;1773804;81;21232;-79
2021/01/20 07:04:53;;;;;;;42.83;15.38;;;;;;;-16.49;100.00;100825.30;1780038;80;21276;-80
2021/01/20 07:07:54;;;;;;;18.50;13.17;;;;;;;-16.37;100.00;100833.20;1756032;81;20985;-81
2021/01/20 07:10:25;;;;;;;21.60;13.37;;;;;;;-16.10;100.00;100822.25;1681233;84;21228;-81
2021/01/20 07:13:16;;;;;;;23.97;10.53;;;;;;;-16.10;100.00;100822.25;1651039;86;21415;-80
2021/01/20 07:15:46;;;;;;;30.57;16.33;;;;;;;-16.00;100.00;100826.22;1689808;84;21370;-79
2021/01/20 07:18:17;;;;;;;18.02;11.57;;;;;;;-15.96;100.00;100827.56;1690941;84;21448;-80
2021/01/20 07:21:10;;;;;;;40.37;22.30;;;;;;;-15.87;100.00;100828.08;1690125;84;21005;-79
2021/01/20 07:23:46;;;;;;;50.03;17.07;;;;;;;-15.75;100.00;100835.97;1686860;85;21433;-79
2021/01/20 07:26:15;;;;;;;47.43;15.43;;;;;;;-15.70;100.00;100839.88;1699052;84;21367;-80
2021/01/20 07:28:43;;;;;;;46.97;15.70;;;;;;;-15.70;100.00;100839.88;1619210;87;21743;-80
2021/01/20 07:31:14;;;;;;;43.50;21.87;;;;;;;-15.49;100.00;100837.84;1699381;84;22074;-82
2021/01/20 07:46:29;;;;;;;32.63;17.33;;;;;;;-14.82;100.00;100854.28;1699363;80;21535;-80
2021/01/20 07:49:00;;;;;;;30.00;20.70;;;;;;;-14.82;100.00;100854.28;1791606;78;21679;-79
2021/01/20 07:51:30;;;;;;;29.20;18.10;;;;;;;-14.57;100.00;100871.24;1702648;84;21005;-80
2021/01/20 07:54:02;;;;;;;56.37;29.50;;;;;;;-14.36;100.00;100863.97;1736112;82;21009;-80
2021/01/20 07:56:33;;;;;;;44.77;21.70;;;;;;;-14.17;100.00;100861.02;1694377;83;21632;-79
2021/01/20 07:59:18;;;;;;;52.17;23.93;;;;;;;-14.03;100.00;100871.45;1684263;83;21780;-75
2021/01/20 08:01:47;;;;;;;44.50;23.40;;;;;;;-13.96;100.00;100861.05;1684687;84;22115;-78
2021/01/20 08:04:22;;;;;;;54.90;26.97;;;;;;;-13.91;100.00;100860.19;1680578;84;21981;-76
2021/01/20 08:06:51;;;;;;;36.20;22.13;;;;;;;-13.92;100.00;100862.38;1682934;84;21846;-77
2021/01/20 08:09:21;;;;;;;56.00;29.47;;;;;;;-13.89;100.00;100860.64;1700360;84;21756;-81
2021/01/20 08:11:50;;;;;;;46.33;23.13;;;;;;;-13.76;100.00;100871.92;1691218;84;21806;-80
2021/01/20 08:14:18;;;;;;;57.73;19.50;;;;;;;-13.70;100.00;100872.36;1683623;84;22632;-79
2021/01/20 08:16:50;;;;;;;35.90;25.23;;;;;;;-13.49;100.00;100871.09;1676431;84;21767;-80
2021/01/20 08:19:20;;;;;;;75.92;23.95;;;;;;;-13.15;100.00;100874.06;1688061;84;23296;-78
2021/01/20 08:21:48;;;;;;;42.03;23.03;;;;;;;-12.46;100.00;100868.27;1678517;84;20978;-78
2021/01/20 08:24:22;;;;;;;45.27;23.67;;;;;;;-12.19;100.00;100869.46;1674361;85;21070;-79
2021/01/20 08:26:56;;;;;;;35.43;19.37;;;;;;;-12.19;100.00;100869.46;1674944;85;21468;-75
2021/01/20 08:29:31;;;;;;;41.23;18.70;;;;;;;-11.85;100.00;100866.19;1825777;76;22745;-75
2021/01/20 08:32:09;;;;;;;34.90;18.13;;;;;;;-11.70;100.00;100862.17;1803825;78;20891;-78
2021/01/20 08:34:41;;;;;;;32.63;11.50;;;;;;;-11.51;100.00;100869.44;1803335;79;21349;-78
2021/01/20 08:37:21;;;;;;;28.90;14.47;;;;;;;-11.25;100.00;100870.10;1803899;79;20945;-77
2021/01/20 08:39:55;;;;;;;34.10;19.73;;;;;;;-11.02;100.00;100867.28;1730920;81;20953;-80
2021/01/20 08:42:38;;;;;;;15.93;8.43;;;;;;;-10.78;100.00;100867.04;1748342;80;21053;-80
2021/01/20 08:45:17;;;;;;;20.57;7.90;;;;;;;-10.67;100.00;100868.23;1755967;81;21102;-81
2021/01/20 08:47:59;;;;;;;14.67;7.60;;;;;;;-10.51;100.00;100868.47;1761224;81;21887;-70
2021/01/20 08:50:40;;;;;;;14.70;8.17;;;;;;;-10.52;100.00;100867.17;1748457;81;21046;-70
2021/01/20 08:53:11;;;;;;;13.60;6.97;;;;;;;-10.47;100.00;100871.05;1748556;81;21077;-71
2021/01/20 08:55:55;;;;;;;26.00;10.87;;;;;;;-10.48;100.00;100869.31;1892841;74;22803;-69
2021/01/20 08:58:34;;;;;;;28.63;11.17;;;;;;;-10.68;100.00;100876.08;1846274;76;21357;-80
2021/01/20 09:01:27;;;;;;;19.10;9.57;;;;;;;-10.76;100.00;100875.72;1868268;76;21347;-80
2021/01/20 09:03:59;;;;;;;12.68;6.97;;;;;;;-10.78;100.00;100876.60;1812225;79;27189;-79
2021/01/20 09:06:32;;;;;;;14.35;6.25;;;;;;;-10.85;100.00;100883.66;1819948;79;20998;-82
2021/01/20 09:09:00;;;;;;;19.07;10.87;;;;;;;-10.85;100.00;100883.66;1774161;80;21442;-77
2021/01/20 09:11:31;;;;;;;14.70;7.30;;;;;;;-11.00;100.00;100885.11;1792702;80;21021;-80
2021/01/20 09:13:59;;;;;;;17.87;6.20;;;;;;;-11.29;100.00;100879.26;1791767;80;21453;-70
2021/01/20 09:16:28;;;;;;;11.80;6.20;;;;;;;-11.51;100.00;100890.73;1816400;78;20946;-79
2021/01/20 09:18:58;;;;;;;14.33;6.53;;;;;;;-11.64;100.00;100891.27;1816819;78;21001;-79
2021/01/20 09:21:28;;;;;;;14.93;7.70;;;;;;;-11.72;100.00;100888.72;1799368;79;21002;-70
2021/01/20 09:23:56;;;;;;;9.17;5.63;;;;;;;-11.62;100.00;100895.18;1802413;79;20985;-78
2021/01/20 09:26:24;;;;;;;14.40;5.33;;;;;;;-11.43;100.00;100901.14;1815519;79;21187;-80
2021/01/20 09:28:55;;;;;;;18.63;9.10;;;;;;;-11.19;100.00;100896.15;1815834;79;21037;-81
2021/01/20 09:31:24;;;;;;;12.68;6.67;;;;;;;-10.95;100.00;100889.41;1728388;81;21044;-80
2021/01/20 09:33:54;;;;;;;10.07;6.33;;;;;;;-10.90;100.00;100895.91;1765370;81;21048;-80
2021/01/20 09:36:25;;;;;;;14.67;6.70;;;;;;;-10.78;100.00;100890.55;1731083;82;21064;-80
2021/01/20 09:38:59;;;;;;;12.17;4.80;;;;;;;-10.55;100.00;100892.03;1749849;82;21198;-80
2021/01/20 09:41:26;;;;;;;19.90;8.65;;;;;;;-10.49;100.00;100897.22;1732703;83;21044;-80
2021/01/20 09:43:57;;;;;;;19.30;8.03;;;;;;;-10.40;100.00;100891.02;1732708;83;20938;-81
2021/01/20 09:46:26;;;;;;;13.37;5.83;;;;;;;-10.33;100.00;100882.21;1732589;83;20962;-80
2021/01/20 09:48:55;;;;;;;12.77;6.30;;;;;;;-10.10;100.00;100877.11;1733004;83;21271;-81
2021/01/20 09:51:29;;;;;;;12.80;6.53;;;;;;;-9.93;100.00;100879.06;1732728;83;21686;-80
2021/01/20 09:53:57;;;;;;;11.30;5.40;;;;;;;-9.90;100.00;100874.22;1732141;81;21163;-80
2021/01/20 09:56:25;;;;;;;11.97;5.73;;;;;;;-10.09;96.87;100881.02;1732188;83;20961;-81
2021/01/20 09:58:55;;;;;;;9.73;6.23;;;;;;;-10.27;96.00;100887.32;1707993;83;20985;-80
2021/01/20 10:01:23;;;;;;;18.97;9.70;;;;;;;-10.36;94.70;100881.79;1730003;83;21032;-70
2021/01/20 10:03:52;;;;;;;15.80;7.60;;;;;;;-10.44;95.07;100891.95;1739089;82;21593;-70
2021/01/20 10:06:20;;;;;;;10.47;6.83;;;;;;;-10.40;95.62;100882.72;1734090;81;21256;-72
2021/01/20 10:08:48;;;;;;;5.80;4.37;;;;;;;-10.35;95.69;100873.08;1769650;80;21155;-82
2021/01/20 10:11:23;;;;;;;8.17;6.03;;;;;;;-10.31;95.21;100877.34;1785879;80;21076;-83
2021/01/20 10:13:55;;;;;;;16.53;7.73;;;;;;;-10.35;94.76;100881.37;1751125;81;20975;-79
2021/01/20 10:16:28;;;;;;;12.47;6.30;;;;;;;-10.42;94.32;100889.72;1764898;80;21448;-80
2021/01/20 10:18:57;;;;;;;9.13;4.63;;;;;;;-10.38;94.61;100884.87;1751810;81;20982;-76
2021/01/20 10:21:25;;;;;;;15.43;7.43;;;;;;;-10.30;94.57;100880.84;1786251;80;21005;-82
2021/01/20 10:23:59;;;;;;;12.33;7.23;;;;;;;-10.37;93.55;100886.61;1768184;80;22552;-80
2021/01/20 10:26:28;;;;;;;14.47;8.47;;;;;;;-10.56;92.12;100883.34;1733615;81;21006;-81
2021/01/20 10:28:56;;;;;;;13.57;7.80;;;;;;;-10.67;92.59;100885.22;1711962;82;21151;-80
2021/01/20 10:31:32;;;;;;;21.97;9.13;;;;;;;-10.60;93.64;100883.41;1798242;79;21118;-82
2021/01/20 10:34:01;;;;;;;18.40;7.43;;;;;;;-10.61;93.25;100881.66;1761626;81;21042;-82
2021/01/20 10:36:34;;;;;;;19.07;8.83;;;;;;;-10.73;92.50;100877.42;1763741;81;21508;-80
2021/01/20 10:39:25;;;;;;;22.30;7.90;;;;;;;-10.82;92.62;100874.46;1770147;80;21371;-82
2021/01/20 10:41:58;;;;;;;21.53;7.67;;;;;;;-10.74;93.87;100874.41;1798371;80;21443;-82
2021/01/20 10:44:28;;;;;;;17.63;8.33;;;;;;;-10.62;94.30;100879.92;1782241;80;22471;-80
2021/01/20 10:46:56;;;;;;;14.20;7.10;;;;;;;-10.59;94.27;100876.83;1777301;80;20978;-80
2021/01/20 10:49:30;;;;;;;15.37;7.93;;;;;;;-10.55;94.19;100878.97;1762464;81;21565;-79
2021/01/20 10:51:58;;;;;;;19.87;6.77;;;;;;;-10.47;94.17;100870.61;1765570;80;21085;-80
2021/01/20 10:54:29;;;;;;;10.23;7.67;;;;;;;-10.46;93.36;100871.05;1778155;80;21455;-78
2021/01/20 10:56:58;;;;;;;12.10;6.20;;;;;;;-10.50;92.53;100865.41;1780734;80;21036;-77
2021/01/20 10:59:26;;;;;;;14.17;8.33;;;;;;;-10.62;92.14;100871.66;1785143;80;21001;-77
2021/01/20 11:01:57;;;;;;;8.87;4.63;;;;;;;-10.60;92.56;100871.64;1762130;81;20985;-78
2021/01/20 11:04:26;;;;;;;7.40;4.77;;;;;;;-10.62;92.77;100877.30;1760456;81;20986;-71
2021/01/20 11:06:55;;;;;;;15.90;6.63;;;;;;;-10.55;93.50;100861.97;1768006;80;21582;-70
2021/01/20 11:09:23;;;;;;;14.00;6.50;;;;;;;-10.49;93.64;100863.23;1769192;80;21024;-70
2021/01/20 11:11:52;;;;;;;10.37;4.83;;;;;;;-10.40;93.89;100864.42;1769308;80;21166;-80
2021/01/20 11:17:15;;;;;;;9.53;4.63;;;;;;;-10.53;92.61;100855.86;1749614;80;21016;-80
2021/01/20 11:19:46;;;;;;;7.83;5.17;;;;;;;-10.44;92.97;100852.73;1761122;80;21317;-80
2021/01/20 11:22:14;;;;;;;9.43;5.40;;;;;;;-10.40;93.06;100864.87;1787155;80;20977;-79
2021/01/20 11:24:43;;;;;;;12.70;5.90;;;;;;;-10.33;93.74;100856.92;1787003;80;21020;-78
2021/01/20 11:27:14;;;;;;;12.53;5.73;;;;;;;-10.27;93.50;100859.00;1787008;80;20977;-80
2021/01/20 11:29:42;;;;;;;11.63;5.87;;;;;;;-10.24;93.52;100854.59;1797138;76;21055;-78
2021/01/20 11:32:10;;;;;;;13.83;5.73;;;;;;;-10.21;93.31;100853.71;1779383;80;21323;-80
2021/01/20 11:34:41;;;;;;;9.23;4.83;;;;;;;-10.28;92.66;100863.38;1808491;79;21040;-81
2021/01/20 11:37:08;;;;;;;6.50;4.30;;;;;;;-10.36;92.55;100856.09;1733870;78;21076;-78
2021/01/20 11:39:37;;;;;;;17.23;6.90;;;;;;;-10.35;92.76;100857.84;1774858;79;21049;-71
2021/01/20 11:42:11;;;;;;;7.07;4.00;;;;;;;-10.33;92.63;100861.30;1787884;80;20915;-79
2021/01/20 11:45:03;;;;;;;9.97;5.13;;;;;;;-10.44;92.01;100858.81;1807414;79;21016;-70